Time;durP1;ratioP1;P1;durP2;ratioP2;P2;SDS_P1;SDS_P2;PMS_P1;PMS_P2;Temp;Humidity;BMP_temperature;BMP_pressure;BME280_temperature;BME280_humidity;BME280_pressure;Samples;Min_cycle;Max_cycle;Signal;HPM_P1;HPM_P2
2022/04/16 00:00:20;;;;;;;1.80;1.08;;;;;;;;;;7402648;19;20009;-79
2022/04/16 00:02:46;;;;;;;1.25;0.80;;;;;;;;;;7397460;19;20009;-79
2022/04/16 00:05:12;;;;;;;1.13;1.02;;;;;;;;;;7402786;19;19995;-79
2022/04/16 00:07:38;;;;;;;2.67;1.10;;;;;;;;;;7401676;19;20005;-79
2022/04/16 00:10:04;;;;;;;4.40;1.17;;;;;;;;;;7399910;19;20002;-79
2022/04/16 00:12:30;;;;;;;1.10;0.80;;;;;;;;;;7400411;19;20480;-79
2022/04/16 00:14:55;;;;;;;1.60;1.23;;;;;;;;;;7402290;19;20010;-79
2022/04/16 00:17:21;;;;;;;1.08;0.98;;;;;;;;;;7400257;19;20324;-79
2022/04/16 00:19:46;;;;;;;2.75;1.42;;;;;;;;;;7399390;19;20367;-79
2022/04/16 00:22:15;;;;;;;2.30;1.27;;;;;;;;;;7405247;19;20005;-78
2022/04/16 00:24:40;;;;;;;1.80;1.30;;;;;;;;;;7398170;19;20006;-79
2022/04/16 00:27:11;;;;;;;2.53;1.25;;;;;;;;;;7395470;19;19999;-79
2022/04/16 00:29:37;;;;;;;1.85;1.17;;;;;;;;;;7403479;19;19998;-79
2022/04/16 00:32:06;;;;;;;1.67;1.23;;;;;;;;;;7401323;19;20352;-79
2022/04/16 00:34:32;;;;;;;1.40;1.10;;;;;;;;;;7400892;19;19999;-79
2022/04/16 00:36:58;;;;;;;1.67;1.15;;;;;;;;;;7398385;19;19998;-79
2022/04/16 00:39:24;;;;;;;1.48;1.17;;;;;;;;;;7399481;19;20010;-79
2022/04/16 00:41:50;;;;;;;2.20;1.30;;;;;;;;;;7398769;19;19991;-79
2022/04/16 00:44:15;;;;;;;3.08;1.38;;;;;;;;;;7399102;19;19998;-79
2022/04/16 00:46:40;;;;;;;3.35;1.45;;;;;;;;;;7396744;19;20016;-79
2022/04/16 00:49:06;;;;;;;3.30;1.48;;;;;;;;;;7400865;19;20003;-79
2022/04/16 00:51:31;;;;;;;2.97;1.52;;;;;;;;;;7399770;19;19998;-79
2022/04/16 00:53:57;;;;;;;4.35;1.67;;;;;;;;;;7400265;19;20006;-79
2022/04/16 00:56:23;;;;;;;1.95;1.38;;;;;;;;;;7398551;19;20042;-79
2022/04/16 00:58:48;;;;;;;2.15;1.58;;;;;;;;;;7397081;19;19994;-79
2022/04/16 01:01:14;;;;;;;2.17;1.48;;;;;;;;;;7399601;19;20525;-79
2022/04/16 01:03:43;;;;;;;2.45;1.52;;;;;;;;;;7397925;19;20371;-79
2022/04/16 01:06:14;;;;;;;2.85;1.55;;;;;;;;;;7397581;19;20007;-78
2022/04/16 01:08:40;;;;;;;3.20;1.52;;;;;;;;;;7397782;19;20002;-79
2022/04/16 01:11:05;;;;;;;4.28;1.38;;;;;;;;;;7398522;19;20331;-78
2022/04/16 01:13:30;;;;;;;4.38;1.65;;;;;;;;;;7399065;19;20062;-79
2022/04/16 01:15:55;;;;;;;3.38;2.10;;;;;;;;;;7396680;19;19999;-79
2022/04/16 01:18:21;;;;;;;3.72;1.55;;;;;;;;;;7397362;19;20002;-79
2022/04/16 01:20:46;;;;;;;3.83;1.70;;;;;;;;;;7402808;19;20011;-79
2022/04/16 01:23:11;;;;;;;3.17;1.80;;;;;;;;;;7397849;19;20009;-79
2022/04/16 01:25:37;;;;;;;4.63;1.60;;;;;;;;;;7396108;19;19999;-79
2022/04/16 01:28:04;;;;;;;2.38;1.58;;;;;;;;;;7399672;19;20443;-79
2022/04/16 01:30:29;;;;;;;3.30;1.60;;;;;;;;;;7399155;19;20461;-78
2022/04/16 01:32:55;;;;;;;2.05;1.50;;;;;;;;;;7398024;19;19994;-79
2022/04/16 01:35:20;;;;;;;3.45;1.50;;;;;;;;;;7397925;19;20003;-79
2022/04/16 01:37:46;;;;;;;2.95;1.77;;;;;;;;;;7400032;19;20007;-78
2022/04/16 01:40:14;;;;;;;3.15;1.40;;;;;;;;;;7397379;19;20494;-79
2022/04/16 01:42:41;;;;;;;3.35;1.48;;;;;;;;;;7398930;19;20036;-79
2022/04/16 01:45:09;;;;;;;1.58;1.45;;;;;;;;;;7396588;19;20002;-79
2022/04/16 01:47:36;;;;;;;3.75;1.70;;;;;;;;;;7397552;19;20010;-79
2022/04/16 01:50:11;;;;;;;3.78;1.50;;;;;;;;;;7401379;19;20028;-79
2022/04/16 01:52:41;;;;;;;4.30;1.80;;;;;;;;;;7398893;19;20009;-79
2022/04/16 01:55:07;;;;;;;2.40;1.55;;;;;;;;;;7398376;19;20002;-79
2022/04/16 01:57:32;;;;;;;2.17;1.55;;;;;;;;;;7397441;19;20010;-79
2022/04/16 01:59:58;;;;;;;3.17;1.70;;;;;;;;;;7396926;19;20012;-79
2022/04/16 02:02:23;;;;;;;3.20;1.77;;;;;;;;;;7394805;19;20406;-79
2022/04/16 02:04:48;;;;;;;3.45;1.50;;;;;;;;;;7395449;19;20222;-79
2022/04/16 02:07:14;;;;;;;1.85;1.48;;;;;;;;;;7393918;19;19994;-78
2022/04/16 02:09:40;;;;;;;2.05;1.63;;;;;;;;;;7399213;19;19999;-79
2022/04/16 02:12:06;;;;;;;3.33;1.60;;;;;;;;;;7398449;19;20002;-78
2022/04/16 02:14:32;;;;;;;3.88;1.60;;;;;;;;;;7397075;19;20047;-78
2022/04/16 02:17:00;;;;;;;2.90;1.83;;;;;;;;;;7393696;19;20335;-79
2022/04/16 02:19:26;;;;;;;3.10;1.55;;;;;;;;;;7396759;19;20058;-78
2022/04/16 02:21:52;;;;;;;2.40;1.50;;;;;;;;;;7396471;19;20030;-79
2022/04/16 02:24:17;;;;;;;1.63;1.30;;;;;;;;;;7394908;19;20048;-78
2022/04/16 02:26:44;;;;;;;3.42;1.60;;;;;;;;;;7394365;19;19991;-79
2022/04/16 02:29:10;;;;;;;3.97;1.65;;;;;;;;;;7397515;19;20462;-78
2022/04/16 02:31:37;;;;;;;1.65;1.30;;;;;;;;;;7395657;19;20438;-79
2022/04/16 02:34:05;;;;;;;2.67;1.33;;;;;;;;;;7396046;19;20066;-79
2022/04/16 02:36:31;;;;;;;2.10;1.60;;;;;;;;;;7394608;19;20021;-79
2022/04/16 02:38:57;;;;;;;2.22;1.25;;;;;;;;;;7394407;19;19998;-78
2022/04/16 02:41:23;;;;;;;3.42;1.20;;;;;;;;;;7395584;19;19998;-79
2022/04/16 02:43:48;;;;;;;2.22;1.40;;;;;;;;;;7396225;19;20006;-79
2022/04/16 02:48:58;;;;;;;2.42;1.35;;;;;;;;;;7396692;19;20078;-79
2022/04/16 02:51:24;;;;;;;4.22;2.90;;;;;;;;;;7396445;19;19999;-79
2022/04/16 02:53:49;;;;;;;6.72;2.65;;;;;;;;;;7396610;19;20003;-79
2022/04/16 02:56:15;;;;;;;7.05;3.10;;;;;;;;;;7394177;19;20346;-79
2022/04/16 02:58:40;;;;;;;4.80;2.50;;;;;;;;;;7395459;19;20013;-79
2022/04/16 03:01:06;;;;;;;4.35;2.50;;;;;;;;;;7396869;19;20006;-78
2022/04/16 03:03:31;;;;;;;5.93;2.28;;;;;;;;;;7395207;19;20006;-79
2022/04/16 03:05:56;;;;;;;3.05;1.75;;;;;;;;;;7394713;19;20006;-79
2022/04/16 03:08:24;;;;;;;3.72;1.70;;;;;;;;;;7395162;19;20450;-79
2022/04/16 03:10:50;;;;;;;2.10;1.35;;;;;;;;;;7396048;19;20044;-78
2022/04/16 03:13:15;;;;;;;2.60;1.75;;;;;;;;;;7395462;19;20022;-79
2022/04/16 03:18:25;;;;;;;2.13;1.40;;;;;;;;;;7394193;19;20480;-78
2022/04/16 03:20:50;;;;;;;2.10;1.45;;;;;;;;;;7396142;19;19998;-78
2022/04/16 03:23:16;;;;;;;1.55;1.35;;;;;;;;;;7394337;19;20379;-79
2022/04/16 03:25:43;;;;;;;5.07;2.55;;;;;;;;;;7394653;19;20398;-79
2022/04/16 03:28:09;;;;;;;7.15;1.90;;;;;;;;;;7394028;19;20062;-79
2022/04/16 03:30:35;;;;;;;2.60;1.75;;;;;;;;;;7394554;19;19999;-79
2022/04/16 03:33:01;;;;;;;2.17;1.70;;;;;;;;;;7396278;19;20022;-78
2022/04/16 03:35:26;;;;;;;3.13;1.58;;;;;;;;;;7393143;19;20014;-78
2022/04/16 03:37:52;;;;;;;2.03;1.65;;;;;;;;;;7393391;19;20532;-79
2022/04/16 03:40:17;;;;;;;1.92;1.50;;;;;;;;;;7393701;19;19998;-79
2022/04/16 03:42:47;;;;;;;2.20;1.35;;;;;;;;;;7394403;19;19999;-80
2022/04/16 03:45:20;;;;;;;2.17;1.60;;;;;;;;;;7394311;19;20126;-79
2022/04/16 03:47:46;;;;;;;4.60;1.63;;;;;;;;;;7393500;19;20037;-79
2022/04/16 03:50:12;;;;;;;4.53;1.48;;;;;;;;;;7396558;19;20101;-79
2022/04/16 03:52:42;;;;;;;5.07;1.75;;;;;;;;;;7398309;19;20002;-79
2022/04/16 04:00:47;;;;;;;2.50;1.27;;;;;;;;;;7394595;19;20005;-79
2022/04/16 04:03:13;;;;;;;1.75;1.33;;;;;;;;;;7391729;19;19995;-78
2022/04/16 04:05:39;;;;;;;3.40;1.92;;;;;;;;;;7396715;19;20070;-79
2022/04/16 04:08:06;;;;;;;2.17;1.58;;;;;;;;;;7399411;19;20007;-79
2022/04/16 04:10:32;;;;;;;2.22;1.83;;;;;;;;;;7396611;19;20073;-78
2022/04/16 04:12:57;;;;;;;2.75;1.60;;;;;;;;;;7395296;19;20044;-79
2022/04/16 04:15:27;;;;;;;2.38;1.38;;;;;;;;;;7397806;19;20019;-79
2022/04/16 04:17:53;;;;;;;2.03;1.55;;;;;;;;;;7394946;19;20027;-79
2022/04/16 04:20:18;;;;;;;2.90;1.35;;;;;;;;;;7396744;19;19994;-79
2022/04/16 04:22:43;;;;;;;2.65;1.50;;;;;;;;;;7396730;19;20007;-78
2022/04/16 04:25:08;;;;;;;2.05;1.33;;;;;;;;;;7391546;19;20006;-78
2022/04/16 04:27:34;;;;;;;1.95;1.55;;;;;;;;;;7395446;19;20002;-79
2022/04/16 04:30:02;;;;;;;2.00;1.40;;;;;;;;;;7394510;19;20009;-79
2022/04/16 04:32:28;;;;;;;2.60;1.55;;;;;;;;;;7394777;19;19995;-79
2022/04/16 04:34:53;;;;;;;2.65;1.70;;;;;;;;;;7395182;19;20022;-79
2022/04/16 04:37:18;;;;;;;2.20;1.45;;;;;;;;;;7397373;19;20018;-79
2022/04/16 04:39:44;;;;;;;2.25;1.70;;;;;;;;;;7398939;19;20605;-79
2022/04/16 04:42:09;;;;;;;2.58;1.55;;;;;;;;;;7398093;19;20596;-79
2022/04/16 04:44:34;;;;;;;2.50;1.30;;;;;;;;;;7393857;19;20103;-79
2022/04/16 04:46:59;;;;;;;3.13;1.58;;;;;;;;;;7393029;19;19999;-79
2022/04/16 04:49:25;;;;;;;3.00;1.77;;;;;;;;;;7396545;19;20485;-79
2022/04/16 04:51:50;;;;;;;2.90;1.67;;;;;;;;;;7402355;19;19998;-79
2022/04/16 04:54:15;;;;;;;4.90;1.80;;;;;;;;;;7404041;19;20015;-79
2022/04/16 04:56:41;;;;;;;2.47;1.63;;;;;;;;;;7400370;19;20010;-79
2022/04/16 04:59:06;;;;;;;2.03;1.67;;;;;;;;;;7402805;19;20005;-79
2022/04/16 05:01:31;;;;;;;2.45;1.55;;;;;;;;;;7400422;19;20470;-79
2022/04/16 05:03:57;;;;;;;2.70;1.80;;;;;;;;;;7398060;19;20437;-79
2022/04/16 05:06:22;;;;;;;3.45;1.80;;;;;;;;;;7402083;19;20565;-79
2022/04/16 05:08:47;;;;;;;4.25;2.00;;;;;;;;;;7401619;19;20010;-79
2022/04/16 05:11:13;;;;;;;2.72;1.83;;;;;;;;;;7401003;19;20002;-79
2022/04/16 05:13:39;;;;;;;3.42;1.75;;;;;;;;;;7401520;19;20009;-79
2022/04/16 05:16:04;;;;;;;6.50;2.88;;;;;;;;;;7400611;19;19998;-80
2022/04/16 05:18:29;;;;;;;3.75;2.72;;;;;;;;;;7410738;19;20029;-79
2022/04/16 05:20:55;;;;;;;3.83;2.35;;;;;;;;;;7427426;19;19998;-79
2022/04/16 05:23:20;;;;;;;8.63;3.63;;;;;;;;;;7424640;19;19994;-79
2022/04/16 05:25:45;;;;;;;4.45;2.50;;;;;;;;;;7424793;19;20019;-79
2022/04/16 05:28:11;;;;;;;4.80;2.20;;;;;;;;;;7424133;19;20002;-79
2022/04/16 05:30:44;;;;;;;2.75;1.90;;;;;;;;;;7399895;19;20003;-79
2022/04/16 05:34:18;;;;;;;3.63;2.15;;;;;;;;;;7395408;19;20009;-79
2022/04/16 05:36:03;;;;;;;3.42;2.13;;;;;;;;;;7394524;19;20002;-79
2022/04/16 05:38:29;;;;;;;2.97;2.13;;;;;;;;;;7397592;19;20323;-78
2022/04/16 05:40:54;;;;;;;2.30;1.88;;;;;;;;;;7396923;19;20014;-79
2022/04/16 05:43:19;;;;;;;3.45;1.73;;;;;;;;;;7398186;19;19995;-79
2022/04/16 05:45:44;;;;;;;3.60;2.25;;;;;;;;;;7394834;19;20036;-79
2022/04/16 05:48:10;;;;;;;2.63;2.00;;;;;;;;;;7393574;19;20018;-79
2022/04/16 05:50:35;;;;;;;2.10;1.73;;;;;;;;;;7395767;19;19998;-79
2022/04/16 05:53:00;;;;;;;2.55;2.03;;;;;;;;;;7399071;19;20001;-79
2022/04/16 05:55:26;;;;;;;2.42;1.70;;;;;;;;;;7398870;19;20002;-79
2022/04/16 05:57:51;;;;;;;3.05;2.10;;;;;;;;;;7394634;19;20016;-78
2022/04/16 06:00:16;;;;;;;2.50;1.70;;;;;;;;;;7394122;19;19998;-79
2022/04/16 06:02:42;;;;;;;3.53;2.20;;;;;;;;;;7393890;19;20015;-79
2022/04/16 06:05:08;;;;;;;4.00;2.20;;;;;;;;;;7394255;19;20037;-79
2022/04/16 06:07:33;;;;;;;3.17;1.92;;;;;;;;;;7395668;19;19997;-79
2022/04/16 06:09:58;;;;;;;3.28;2.33;;;;;;;;;;7394496;19;20087;-79
2022/04/16 06:12:26;;;;;;;3.75;2.22;;;;;;;;;;7394771;19;20003;-79
2022/04/16 06:14:52;;;;;;;4.18;2.42;;;;;;;;;;7393900;19;20005;-79
2022/04/16 06:17:17;;;;;;;3.60;2.15;;;;;;;;;;7391686;19;20445;-79
2022/04/16 06:19:42;;;;;;;5.93;3.40;;;;;;;;;;7394207;19;20407;-79
2022/04/16 06:22:10;;;;;;;3.67;2.40;;;;;;;;;;7394797;19;20027;-79
2022/04/16 06:24:39;;;;;;;3.40;2.20;;;;;;;;;;7393682;19;20002;-79
2022/04/16 06:27:05;;;;;;;3.63;2.30;;;;;;;;;;7393206;19;20003;-80
2022/04/16 06:29:30;;;;;;;3.45;2.35;;;;;;;;;;7392023;19;20072;-79
2022/04/16 06:31:55;;;;;;;2.50;1.77;;;;;;;;;;7392249;19;20003;-79
2022/04/16 06:34:23;;;;;;;3.78;2.13;;;;;;;;;;7391549;19;20013;-78
2022/04/16 06:36:49;;;;;;;3.65;2.30;;;;;;;;;;7390872;19;19994;-79
2022/04/16 06:39:14;;;;;;;4.55;2.35;;;;;;;;;;7394740;19;20073;-79
2022/04/16 06:41:39;;;;;;;2.65;1.88;;;;;;;;;;7396246;19;20449;-79
2022/04/16 06:44:05;;;;;;;2.60;1.98;;;;;;;;;;7393383;19;20323;-80
2022/04/16 06:46:30;;;;;;;3.30;2.35;;;;;;;;;;7392695;19;20007;-79
2022/04/16 06:48:55;;;;;;;3.30;2.13;;;;;;;;;;7391680;19;20017;-80
2022/04/16 06:51:20;;;;;;;2.55;1.85;;;;;;;;;;7390083;19;20023;-79
2022/04/16 06:53:46;;;;;;;4.15;2.35;;;;;;;;;;7392493;19;19994;-79
2022/04/16 06:56:11;;;;;;;2.78;2.08;;;;;;;;;;7390814;19;20430;-79
2022/04/16 06:58:36;;;;;;;3.78;2.53;;;;;;;;;;7391638;19;19990;-79
2022/04/16 07:01:01;;;;;;;2.97;2.00;;;;;;;;;;7392675;19;20062;-79
2022/04/16 07:03:27;;;;;;;2.45;2.03;;;;;;;;;;7390986;19;20103;-79
2022/04/16 07:05:52;;;;;;;5.15;2.22;;;;;;;;;;7393598;19;20337;-80
2022/04/16 07:08:17;;;;;;;5.90;2.38;;;;;;;;;;7391594;19;20017;-79
2022/04/16 07:10:43;;;;;;;5.25;1.92;;;;;;;;;;7392299;19;19995;-79
2022/04/16 07:13:08;;;;;;;5.15;2.72;;;;;;;;;;7390867;19;19998;-79
2022/04/16 07:15:34;;;;;;;4.57;2.60;;;;;;;;;;7393737;19;19998;-79
2022/04/16 07:18:00;;;;;;;4.35;2.13;;;;;;;;;;7391435;19;20074;-79
2022/04/16 07:20:26;;;;;;;2.65;1.92;;;;;;;;;;7391388;19;20037;-79
2022/04/16 07:22:51;;;;;;;3.53;2.20;;;;;;;;;;7395211;19;20443;-79
2022/04/16 07:25:16;;;;;;;3.95;2.60;;;;;;;;;;7388900;19;20010;-81
2022/04/16 07:27:43;;;;;;;3.17;2.10;;;;;;;;;;7392722;19;20033;-81
2022/04/16 07:30:09;;;;;;;3.33;2.30;;;;;;;;;;7391778;19;20038;-81
2022/04/16 07:32:34;;;;;;;6.30;2.22;;;;;;;;;;7389040;19;20002;-81
2022/04/16 07:35:00;;;;;;;4.72;2.47;;;;;;;;;;7392295;19;19995;-80
2022/04/16 07:37:25;;;;;;;2.83;2.17;;;;;;;;;;7390599;19;20006;-81
2022/04/16 07:39:50;;;;;;;3.40;2.10;;;;;;;;;;7388944;19;20015;-79
2022/04/16 07:42:16;;;;;;;2.55;1.98;;;;;;;;;;7388891;19;20074;-80
2022/04/16 07:44:41;;;;;;;5.70;2.10;;;;;;;;;;7388190;19;20490;-80
2022/04/16 07:47:06;;;;;;;2.45;2.03;;;;;;;;;;7386940;19;20066;-79
2022/04/16 07:49:31;;;;;;;3.20;2.40;;;;;;;;;;7388798;19;20002;-80
2022/04/16 07:51:57;;;;;;;3.33;2.42;;;;;;;;;;7390251;19;20009;-80
2022/04/16 07:54:22;;;;;;;2.42;2.15;;;;;;;;;;7390234;19;20054;-80
2022/04/16 07:56:47;;;;;;;3.50;2.50;;;;;;;;;;7387608;19;20029;-81
2022/04/16 07:59:13;;;;;;;4.75;2.40;;;;;;;;;;7388957;19;20019;-81
2022/04/16 08:01:38;;;;;;;4.20;2.25;;;;;;;;;;7390152;19;19999;-80
2022/04/16 08:04:04;;;;;;;3.30;2.47;;;;;;;;;;7387313;19;19995;-80
2022/04/16 08:06:29;;;;;;;3.92;2.30;;;;;;;;;;7388341;19;19998;-81
2022/04/16 08:09:00;;;;;;;4.28;2.50;;;;;;;;;;7387569;19;19994;-82
2022/04/16 08:11:30;;;;;;;4.57;2.33;;;;;;;;;;7392195;19;20003;-81
2022/04/16 08:13:55;;;;;;;3.47;2.60;;;;;;;;;;7390585;19;20022;-81
2022/04/16 08:16:20;;;;;;;3.15;2.40;;;;;;;;;;7387986;19;19999;-80
2022/04/16 08:18:46;;;;;;;2.60;1.98;;;;;;;;;;7391170;19;20408;-80
2022/04/16 08:21:11;;;;;;;3.50;2.45;;;;;;;;;;7389405;19;19995;-81
2022/04/16 08:23:43;;;;;;;2.40;2.10;;;;;;;;;;7388372;19;20010;-80
2022/04/16 08:26:09;;;;;;;3.38;2.42;;;;;;;;;;7395323;19;20016;-81
2022/04/16 08:28:34;;;;;;;8.25;2.20;;;;;;;;;;7397739;19;20486;-81
2022/04/16 08:30:59;;;;;;;3.55;2.35;;;;;;;;;;7396150;19;20010;-79
2022/04/16 08:33:25;;;;;;;4.53;2.05;;;;;;;;;;7394908;19;20081;-80
2022/04/16 08:35:52;;;;;;;3.38;2.60;;;;;;;;;;7396292;19;19999;-79
2022/04/16 08:38:17;;;;;;;3.63;2.42;;;;;;;;;;7395317;19;20001;-80
2022/04/16 08:40:43;;;;;;;2.35;2.08;;;;;;;;;;7396085;19;20062;-81
2022/04/16 08:43:08;;;;;;;5.82;2.50;;;;;;;;;;7394843;19;20005;-80
2022/04/16 08:45:36;;;;;;;4.80;2.92;;;;;;;;;;7395889;19;20022;-80
2022/04/16 08:48:01;;;;;;;5.07;2.63;;;;;;;;;;7395832;19;20485;-80
2022/04/16 08:50:27;;;;;;;3.55;2.60;;;;;;;;;;7395058;19;20003;-82
2022/04/16 08:52:53;;;;;;;5.05;2.63;;;;;;;;;;7395958;19;20015;-82
2022/04/16 08:55:18;;;;;;;3.20;2.38;;;;;;;;;;7394492;19;20009;-80
2022/04/16 08:57:43;;;;;;;3.70;1.95;;;;;;;;;;7395178;19;20007;-82
2022/04/16 09:00:13;;;;;;;2.17;1.90;;;;;;;;;;7393359;19;20006;-79
2022/04/16 09:02:58;;;;;;;3.22;2.70;;;;;;;;;;7392145;19;20015;-80
2022/04/16 09:05:26;;;;;;;7.85;3.22;;;;;;;;;;7394573;19;20075;-81
2022/04/16 09:07:56;;;;;;;3.85;2.70;;;;;;;;;;7397965;19;20318;-81
2022/04/16 09:10:25;;;;;;;6.55;3.60;;;;;;;;;;7397369;19;20019;-81
2022/04/16 09:12:52;;;;;;;4.22;2.80;;;;;;;;;;7398446;19;20002;-81
2022/04/16 09:15:18;;;;;;;11.02;4.50;;;;;;;;;;7395086;19;20003;-80
2022/04/16 09:17:54;;;;;;;4.05;2.45;;;;;;;;;;7394343;19;20008;-80
2022/04/16 09:20:20;;;;;;;7.80;4.05;;;;;;;;;;7393990;19;20027;-80
2022/04/16 09:22:49;;;;;;;8.48;3.28;;;;;;;;;;7394490;19;19999;-80
2022/04/16 09:25:19;;;;;;;4.13;2.10;;;;;;;;;;7390430;19;20002;-79
2022/04/16 09:27:46;;;;;;;3.60;2.03;;;;;;;;;;7393990;19;19995;-79
2022/04/16 09:30:13;;;;;;;2.75;2.10;;;;;;;;;;7393099;19;20073;-80
2022/04/16 09:32:43;;;;;;;2.67;1.77;;;;;;;;;;7392883;19;19995;-80
2022/04/16 09:35:24;;;;;;;3.35;2.10;;;;;;;;;;7394159;19;19994;-80
2022/04/16 09:37:53;;;;;;;3.30;2.30;;;;;;;;;;7393054;19;20035;-79
2022/04/16 09:40:18;;;;;;;3.08;2.05;;;;;;;;;;7393243;19;20462;-80
2022/04/16 09:42:51;;;;;;;4.05;2.20;;;;;;;;;;7392208;19;20007;-79
2022/04/16 09:45:16;;;;;;;4.97;2.05;;;;;;;;;;7391977;19;20453;-79
2022/04/16 09:47:43;;;;;;;2.25;1.92;;;;;;;;;;7393103;19;20065;-80
2022/04/16 09:50:11;;;;;;;9.60;1.90;;;;;;;;;;7395465;19;20067;-80
2022/04/16 09:52:37;;;;;;;2.75;1.60;;;;;;;;;;7394859;19;20406;-80
2022/04/16 09:55:02;;;;;;;5.38;2.72;;;;;;;;;;7394199;19;20717;-81
2022/04/16 09:57:31;;;;;;;3.10;1.80;;;;;;;;;;7399500;19;19995;-81
2022/04/16 09:59:59;;;;;;;2.53;1.70;;;;;;;;;;7394170;19;20006;-81
2022/04/16 10:02:27;;;;;;;3.22;2.42;;;;;;;;;;7394620;19;20002;-79
2022/04/16 10:04:53;;;;;;;4.88;1.70;;;;;;;;;;7395025;19;20123;-81
2022/04/16 10:07:18;;;;;;;2.10;1.60;;;;;;;;;;7393913;19;20003;-81
2022/04/16 10:09:45;;;;;;;1.83;1.52;;;;;;;;;;7394599;19;20381;-79
2022/04/16 10:15:05;;;;;;;1.77;1.50;;;;;;;;;;7397955;19;20013;-80
2022/04/16 10:17:35;;;;;;;1.90;1.70;;;;;;;;;;7394396;19;19994;-80
2022/04/16 10:20:11;;;;;;;2.88;1.98;;;;;;;;;;7391509;19;20115;-81
2022/04/16 10:22:37;;;;;;;1.90;1.45;;;;;;;;;;7392755;19;19998;-81
2022/04/16 10:25:04;;;;;;;2.33;1.60;;;;;;;;;;7395642;19;20014;-80
2022/04/16 10:27:31;;;;;;;2.67;1.48;;;;;;;;;;7393332;19;20010;-81
2022/04/16 10:30:07;;;;;;;2.97;1.90;;;;;;;;;;7391783;19;20009;-81
2022/04/16 10:32:41;;;;;;;2.15;1.63;;;;;;;;;;7390227;19;20003;-80
2022/04/16 10:35:15;;;;;;;2.47;1.77;;;;;;;;;;7392705;19;20005;-80
2022/04/16 10:37:42;;;;;;;1.75;1.30;;;;;;;;;;7392590;19;20783;-80
2022/04/16 10:40:23;;;;;;;1.73;1.40;;;;;;;;;;7390739;19;20013;-81
2022/04/16 10:42:59;;;;;;;1.63;1.23;;;;;;;;;;7390435;19;20015;-81
2022/04/16 10:45:25;;;;;;;1.40;1.30;;;;;;;;;;7393618;19;20454;-79
2022/04/16 10:47:52;;;;;;;1.73;1.52;;;;;;;;;;7390569;19;20020;-81
2022/04/16 10:50:19;;;;;;;1.83;1.55;;;;;;;;;;7392202;19;20126;-80
2022/04/16 10:52:58;;;;;;;1.40;1.30;;;;;;;;;;7391152;19;20015;-80
2022/04/16 10:55:31;;;;;;;1.75;1.40;;;;;;;;;;7389977;19;19999;-81
2022/04/16 10:57:58;;;;;;;1.48;1.27;;;;;;;;;;7391660;19;20011;-80
2022/04/16 11:00:45;;;;;;;2.17;1.60;;;;;;;;;;7390506;19;20007;-82
2022/04/16 11:03:18;;;;;;;1.58;1.33;;;;;;;;;;7390698;19;19994;-80
2022/04/16 11:05:44;;;;;;;1.45;1.35;;;;;;;;;;7390763;19;19998;-81
2022/04/16 11:08:14;;;;;;;3.78;1.38;;;;;;;;;;7388929;19;20080;-80
2022/04/16 11:10:41;;;;;;;1.70;1.40;;;;;;;;;;7394450;19;20010;-80
2022/04/16 11:13:07;;;;;;;1.20;1.10;;;;;;;;;;7388952;19;20014;-80
2022/04/16 11:15:32;;;;;;;2.00;1.58;;;;;;;;;;7391235;19;19999;-81
2022/04/16 11:18:00;;;;;;;1.42;1.33;;;;;;;;;;7393769;19;20006;-81
2022/04/16 11:20:28;;;;;;;2.00;1.67;;;;;;;;;;7392704;19;20014;-79
2022/04/16 11:22:54;;;;;;;2.25;1.40;;;;;;;;;;7390200;19;20026;-80
2022/04/16 11:25:24;;;;;;;3.08;2.00;;;;;;;;;;7389288;19;20002;-80
2022/04/16 11:36:08;;;;;;;2.35;1.85;;;;;;;;;;7390229;19;20086;-80
2022/04/16 11:38:35;;;;;;;1.95;1.75;;;;;;;;;;7390326;19;20006;-80
2022/04/16 11:41:08;;;;;;;3.08;2.00;;;;;;;;;;7391974;19;20000;-80
2022/04/16 11:43:34;;;;;;;3.25;1.98;;;;;;;;;;7392237;19;20002;-81
2022/04/16 11:46:01;;;;;;;2.60;2.05;;;;;;;;;;7390396;19;20025;-80
2022/04/16 11:48:28;;;;;;;3.08;2.38;;;;;;;;;;7389409;19;20011;-80
2022/04/16 11:50:54;;;;;;;3.38;2.22;;;;;;;;;;7396157;19;20006;-81
2022/04/16 11:53:19;;;;;;;4.30;2.47;;;;;;;;;;7396667;19;20327;-81
2022/04/16 11:55:49;;;;;;;3.78;2.70;;;;;;;;;;7391818;19;20368;-80
2022/04/16 11:58:15;;;;;;;4.22;2.78;;;;;;;;;;7390544;19;20006;-80
2022/04/16 12:00:54;;;;;;;2.78;2.13;;;;;;;;;;7398065;19;20028;-81
2022/04/16 12:03:20;;;;;;;3.15;2.35;;;;;;;;;;7398033;19;20007;-80
2022/04/16 12:05:48;;;;;;;3.67;2.38;;;;;;;;;;7400068;19;19998;-81
2022/04/16 12:08:16;;;;;;;3.75;2.80;;;;;;;;;;7399894;19;20443;-81
2022/04/16 12:10:45;;;;;;;2.05;1.70;;;;;;;;;;7403824;19;20018;-79
2022/04/16 12:13:12;;;;;;;4.28;2.13;;;;;;;;;;7402585;19;20023;-81
2022/04/16 12:15:45;;;;;;;3.80;2.30;;;;;;;;;;7400823;19;20906;-80
2022/04/16 12:18:15;;;;;;;3.28;2.30;;;;;;;;;;7399657;19;20095;-81
2022/04/16 12:20:46;;;;;;;3.90;2.50;;;;;;;;;;7409471;19;20383;-81
2022/04/16 12:23:21;;;;;;;4.20;2.38;;;;;;;;;;7426807;19;19999;-78
2022/04/16 12:25:47;;;;;;;5.65;2.80;;;;;;;;;;7425513;19;20002;-79
2022/04/16 12:28:13;;;;;;;2.83;2.38;;;;;;;;;;7425155;19;20015;-78
2022/04/16 12:30:39;;;;;;;3.30;2.53;;;;;;;;;;7424795;19;19995;-78
2022/04/16 12:33:06;;;;;;;2.53;1.95;;;;;;;;;;7409401;19;19990;-81
2022/04/16 12:35:36;;;;;;;2.97;2.42;;;;;;;;;;7397545;19;20003;-79
2022/04/16 12:38:03;;;;;;;2.30;2.10;;;;;;;;;;7397456;19;19999;-80
2022/04/16 12:40:30;;;;;;;4.45;2.33;;;;;;;;;;7398297;19;20013;-80
2022/04/16 12:42:57;;;;;;;3.60;2.60;;;;;;;;;;7397458;19;20362;-81
2022/04/16 12:45:23;;;;;;;2.75;1.70;;;;;;;;;;7398990;19;20036;-80
2022/04/16 12:47:52;;;;;;;4.07;2.72;;;;;;;;;;7396267;19;20038;-80
2022/04/16 12:50:18;;;;;;;2.35;2.00;;;;;;;;;;7390605;19;20748;-81
2022/04/16 12:52:45;;;;;;;2.70;2.33;;;;;;;;;;7394799;19;20009;-80
2022/04/16 12:55:11;;;;;;;3.90;2.65;;;;;;;;;;7394849;19;20070;-81
2022/04/16 12:57:36;;;;;;;4.35;3.00;;;;;;;;;;7394999;19;20027;-80
2022/04/16 13:00:09;;;;;;;5.78;2.72;;;;;;;;;;7394541;19;19998;-81
2022/04/16 13:02:35;;;;;;;3.22;2.08;;;;;;;;;;7395109;19;20012;-80
2022/04/16 13:05:01;;;;;;;3.35;2.28;;;;;;;;;;7392393;19;19991;-80
2022/04/16 13:07:26;;;;;;;3.58;2.22;;;;;;;;;;7396437;19;20003;-80
2022/04/16 13:09:52;;;;;;;3.08;2.20;;;;;;;;;;7393358;19;20003;-80
2022/04/16 13:12:18;;;;;;;2.92;2.13;;;;;;;;;;7391515;19;19994;-81
2022/04/16 13:14:46;;;;;;;2.42;1.90;;;;;;;;;;7394106;19;20054;-80
2022/04/16 13:17:12;;;;;;;4.47;2.50;;;;;;;;;;7394247;19;20073;-80
2022/04/16 13:19:37;;;;;;;2.60;2.22;;;;;;;;;;7397234;19;20014;-80
2022/04/16 13:22:03;;;;;;;2.72;1.73;;;;;;;;;;7397638;19;20010;-80
2022/04/16 13:24:28;;;;;;;2.97;1.95;;;;;;;;;;7392876;19;20646;-80
2022/04/16 13:26:53;;;;;;;2.75;1.83;;;;;;;;;;7391716;19;20062;-79
2022/04/16 13:29:19;;;;;;;3.38;1.85;;;;;;;;;;7393333;19;19994;-81
2022/04/16 13:31:44;;;;;;;2.55;1.50;;;;;;;;;;7391327;19;20070;-79
2022/04/16 13:34:10;;;;;;;2.50;1.70;;;;;;;;;;7396309;19;20110;-80
2022/04/16 13:36:36;;;;;;;2.85;1.70;;;;;;;;;;7392191;19;20058;-80
2022/04/16 13:39:04;;;;;;;2.20;1.67;;;;;;;;;;7392075;19;19994;-81
2022/04/16 13:41:39;;;;;;;6.03;2.10;;;;;;;;;;7392694;19;19995;-81
2022/04/16 13:44:06;;;;;;;4.07;2.10;;;;;;;;;;7392280;19;20023;-80
2022/04/16 13:46:35;;;;;;;2.05;1.50;;;;;;;;;;7391864;19;20019;-81
2022/04/16 13:49:00;;;;;;;5.35;1.83;;;;;;;;;;7391109;19;19995;-80
2022/04/16 13:51:26;;;;;;;3.83;2.20;;;;;;;;;;7392301;19;20331;-80
2022/04/16 13:53:51;;;;;;;2.08;1.80;;;;;;;;;;7393061;19;20336;-79
2022/04/16 13:56:16;;;;;;;2.05;1.42;;;;;;;;;;7391645;19;20103;-81
2022/04/16 13:58:42;;;;;;;2.20;1.63;;;;;;;;;;7391622;19;19999;-80
2022/04/16 14:01:11;;;;;;;2.58;1.70;;;;;;;;;;7393264;19;19999;-80
2022/04/16 14:03:37;;;;;;;3.10;1.45;;;;;;;;;;7391649;19;19995;-81
2022/04/16 14:06:03;;;;;;;2.05;1.20;;;;;;;;;;7393854;19;20014;-78
2022/04/16 14:08:28;;;;;;;1.33;1.23;;;;;;;;;;7395349;19;20006;-79
2022/04/16 14:10:57;;;;;;;2.70;1.40;;;;;;;;;;7393290;19;20019;-79
2022/04/16 14:13:23;;;;;;;3.35;2.25;;;;;;;;;;7394341;19;19995;-79
2022/04/16 14:15:50;;;;;;;3.67;1.42;;;;;;;;;;7392717;19;19995;-79
2022/04/16 14:18:15;;;;;;;1.75;1.30;;;;;;;;;;7390634;19;19991;-79
2022/04/16 14:20:41;;;;;;;1.77;1.50;;;;;;;;;;7391047;19;20006;-80
2022/04/16 14:23:07;;;;;;;2.97;1.42;;;;;;;;;;7387406;19;20023;-79
2022/04/16 14:25:33;;;;;;;1.67;1.30;;;;;;;;;;7390283;19;20070;-80
2022/04/16 14:28:01;;;;;;;2.97;1.48;;;;;;;;;;7388652;19;20019;-79
2022/04/16 14:30:27;;;;;;;2.78;1.67;;;;;;;;;;7389798;19;20049;-79
2022/04/16 14:32:54;;;;;;;3.35;1.80;;;;;;;;;;7389670;19;20026;-79
2022/04/16 14:35:19;;;;;;;1.40;1.25;;;;;;;;;;7390509;19;20019;-79
2022/04/16 14:37:45;;;;;;;1.25;1.15;;;;;;;;;;7390000;19;20010;-79
2022/04/16 14:40:11;;;;;;;2.17;1.50;;;;;;;;;;7391072;19;19999;-80
2022/04/16 14:42:36;;;;;;;1.90;1.30;;;;;;;;;;7390149;19;20107;-79
2022/04/16 14:45:02;;;;;;;2.45;1.30;;;;;;;;;;7390078;19;19986;-79
2022/04/16 14:47:27;;;;;;;1.85;1.40;;;;;;;;;;7393035;19;20379;-80
2022/04/16 14:49:52;;;;;;;1.50;1.40;;;;;;;;;;7388609;19;20018;-80
2022/04/16 14:52:18;;;;;;;1.50;1.40;;;;;;;;;;7389459;19;20001;-80
2022/04/16 14:54:44;;;;;;;1.30;1.20;;;;;;;;;;7389647;19;19995;-80
2022/04/16 14:57:09;;;;;;;1.27;1.13;;;;;;;;;;7391912;19;20007;-80
2022/04/16 14:59:34;;;;;;;2.13;1.17;;;;;;;;;;7388715;19;20011;-79
2022/04/16 15:02:02;;;;;;;2.83;1.70;;;;;;;;;;7389338;19;20471;-80